createdAt,value
2023-01-03T00:06:50.117Z,23.75
2023-01-03T00:14:27.181Z,23.75
2023-01-03T00:21:58.925Z,23.75
2023-01-03T00:29:30.855Z,23.74
2023-01-03T00:37:02.650Z,23.76
2023-01-03T00:44:34.441Z,23.74
2023-01-03T00:52:06.170Z,23.74
2023-01-03T00:59:37.907Z,23.73
2023-01-03T01:07:10.953Z,23.72
2023-01-03T01:14:42.687Z,23.72
2023-01-03T01:22:14.370Z,23.73
2023-01-03T01:29:46.641Z,23.71
2023-01-03T01:37:18.456Z,23.70
2023-01-03T01:44:56.245Z,23.70
2023-01-03T01:52:27.972Z,23.69
2023-01-03T02:00:00.288Z,23.69
2023-01-03T02:07:32.195Z,23.70
2023-01-03T02:15:54.997Z,23.70
2023-01-03T02:23:57.467Z,23.69
2023-01-03T02:31:56.345Z,23.68
2023-01-03T02:39:40.948Z,23.67
2023-01-03T02:47:13.124Z,23.67
2023-01-03T02:55:07.001Z,23.67
2023-01-03T03:02:39.279Z,23.66
2023-01-03T03:10:30.187Z,23.67
2023-01-03T03:18:25.742Z,23.66
2023-01-03T03:26:00.395Z,23.65
2023-01-03T03:33:33.949Z,23.65
2023-01-03T03:41:37.903Z,23.65
2023-01-03T03:49:31.551Z,23.63
2023-01-03T03:57:33.363Z,23.62
2023-01-03T04:05:07.976Z,23.63
2023-01-03T04:12:39.727Z,23.61
2023-01-03T04:20:11.885Z,23.60
2023-01-03T04:27:43.617Z,23.61
2023-01-03T04:35:15.375Z,23.60
2023-01-03T04:43:05.519Z,23.59
2023-01-03T04:50:37.254Z,23.60
2023-01-03T04:58:09.010Z,23.58
2023-01-03T05:05:40.902Z,23.58
2023-01-03T05:13:12.680Z,23.58
2023-01-03T05:21:03.413Z,23.59
2023-01-03T05:28:35.137Z,23.57
2023-01-03T05:36:07.782Z,23.56
2023-01-03T05:43:39.670Z,23.53
2023-01-03T05:51:11.481Z,23.58
2023-01-03T05:58:43.919Z,23.56
2023-01-03T06:06:15.786Z,23.56
2023-01-03T06:13:47.525Z,23.57
2023-01-03T06:21:19.266Z,23.58
2023-01-03T06:28:51.144Z,23.54
2023-01-03T06:36:23.467Z,23.53
2023-01-03T06:43:55.422Z,23.53
2023-01-03T06:51:46.113Z,23.52
2023-01-03T06:59:18.474Z,23.51
2023-01-03T07:06:50.245Z,23.50
2023-01-03T07:14:22.070Z,23.50
2023-01-03T07:21:53.809Z,23.49
2023-01-03T07:29:25.548Z,23.48
2023-01-03T07:36:57.333Z,23.48
2023-01-03T07:44:29.085Z,23.47
2023-01-03T07:52:00.848Z,23.46
2023-01-03T07:59:32.583Z,23.45
2023-01-03T08:07:04.295Z,23.45
2023-01-03T08:14:36.094Z,23.45
2023-01-03T08:22:07.820Z,23.41
2023-01-03T08:29:39.639Z,23.45
2023-01-03T08:37:11.532Z,23.43
2023-01-03T08:44:44.987Z,23.41
2023-01-03T08:52:16.972Z,23.42
2023-01-03T08:59:48.790Z,23.40
2023-01-03T09:07:20.538Z,23.39
2023-01-03T09:14:52.345Z,23.40
2023-01-03T09:22:24.110Z,23.41
2023-01-03T09:29:55.855Z,23.39
2023-01-03T09:37:27.578Z,23.40
2023-01-03T09:45:00.385Z,23.39
2023-01-03T09:52:51.176Z,23.38
2023-01-03T10:00:58.773Z,23.37
2023-01-03T10:09:00.763Z,23.36
2023-01-03T10:16:59.110Z,23.37
2023-01-03T10:24:32.800Z,23.37
2023-01-03T10:32:36.756Z,23.35
2023-01-03T10:40:09.335Z,23.36
2023-01-03T10:47:41.338Z,23.38
2023-01-03T10:55:15.856Z,23.38
2023-01-03T11:02:47.959Z,23.39
2023-01-03T11:10:20.036Z,23.39
2023-01-03T11:17:57.318Z,23.43
2023-01-03T11:26:27.900Z,23.38
2023-01-03T11:35:03.053Z,23.27
2023-01-03T11:43:02.554Z,23.31
2023-01-03T11:51:17.188Z,23.34
2023-01-03T11:59:15.461Z,23.34
2023-01-03T12:07:14.161Z,23.34
2023-01-03T12:14:56.665Z,23.34
2023-01-03T12:22:40.304Z,23.34
2023-01-03T12:30:36.938Z,23.33
2023-01-03T12:38:08.765Z,23.31
2023-01-03T12:46:08.599Z,23.32
2023-01-03T12:53:53.592Z,23.31
2023-01-03T13:02:07.705Z,23.35
2023-01-03T13:09:43.430Z,23.34
2023-01-03T13:17:18.050Z,23.33
2023-01-03T13:24:53.996Z,23.33
2023-01-03T13:32:32.940Z,23.34
2023-01-03T13:40:59.731Z,23.32
2023-01-03T13:48:25.970Z,23.32
2023-01-03T13:56:20.237Z,23.31
2023-01-03T14:04:10.413Z,23.32
2023-01-03T14:12:14.139Z,23.32
2023-01-03T14:19:51.904Z,23.39
2023-01-03T14:27:27.987Z,23.41
2023-01-03T14:34:59.789Z,23.45
2023-01-03T14:42:31.650Z,23.46
2023-01-03T14:50:04.940Z,23.47
2023-01-03T14:57:37.984Z,23.41
2023-01-03T15:05:27.313Z,23.31
2023-01-03T15:13:04.647Z,23.27
2023-01-03T15:20:42.059Z,23.23
2023-01-03T15:28:27.919Z,23.23
2023-01-03T15:36:18.861Z,23.22
2023-01-03T15:43:51.270Z,23.21
2023-01-03T15:51:23.157Z,23.19
2023-01-03T15:58:55.792Z,23.19
2023-01-03T16:06:27.559Z,23.21
2023-01-03T16:14:02.604Z,23.20
2023-01-03T16:21:34.313Z,23.22
2023-01-03T16:29:06.367Z,23.18
2023-01-03T16:36:39.785Z,23.20
2023-01-03T16:44:11.614Z,23.19
2023-01-03T16:51:48.924Z,23.18
2023-01-03T16:59:22.534Z,23.16
2023-01-03T17:06:54.301Z,23.17
2023-01-03T17:14:26.225Z,23.16
2023-01-03T17:21:57.933Z,23.15
2023-01-03T17:29:29.668Z,23.17
2023-01-03T17:37:01.421Z,23.15
2023-01-03T17:44:33.176Z,23.17
2023-01-03T17:52:08.536Z,23.17
2023-01-03T17:59:40.485Z,23.18
2023-01-03T18:07:18.498Z,23.19
2023-01-03T18:14:50.321Z,23.18
2023-01-03T18:22:22.667Z,23.18
2023-01-03T18:29:54.526Z,23.18
2023-01-03T18:37:30.985Z,23.18
2023-01-03T18:45:02.740Z,23.17
2023-01-03T18:52:40.375Z,23.17
2023-01-03T19:00:20.832Z,23.18
2023-01-03T19:07:53.015Z,23.16
2023-01-03T19:15:29.129Z,23.17
2023-01-03T19:23:00.903Z,23.17
2023-01-03T19:30:39.475Z,23.16
2023-01-03T19:38:11.287Z,23.15
2023-01-03T19:45:43.040Z,23.17
2023-01-03T19:53:15.096Z,23.15
2023-01-03T20:00:47.399Z,23.14
2023-01-03T20:08:19.118Z,23.14
2023-01-03T20:15:53.984Z,23.14
2023-01-03T20:23:25.748Z,23.16
2023-01-03T20:30:58.600Z,23.14
2023-01-03T20:38:30.477Z,23.15
2023-01-03T20:46:02.283Z,23.16
2023-01-03T20:53:35.026Z,23.14
2023-01-03T21:01:09.361Z,23.14
2023-01-03T21:08:56.501Z,23.14
2023-01-03T21:16:42.678Z,23.15
2023-01-03T21:24:16.842Z,23.14
2023-01-03T21:31:48.626Z,23.11
2023-01-03T21:39:20.495Z,23.10
2023-01-03T21:46:52.532Z,23.13
2023-01-03T21:54:24.337Z,23.11
2023-01-03T22:02:14.534Z,23.11
2023-01-03T22:10:04.758Z,23.12
2023-01-03T22:17:36.993Z,23.13
2023-01-03T22:25:10.404Z,23.11
2023-01-03T22:32:42.251Z,23.13
2023-01-03T22:40:16.048Z,23.14
2023-01-03T22:47:47.887Z,23.15
2023-01-03T22:55:19.689Z,23.14
2023-01-03T23:02:51.518Z,23.14
2023-01-03T23:10:23.375Z,23.15
2023-01-03T23:17:57.742Z,23.12
2023-01-03T23:25:31.018Z,23.13
2023-01-03T23:33:02.770Z,23.12
2023-01-03T23:40:34.554Z,23.11
2023-01-03T23:48:06.463Z,23.12
2023-01-03T23:55:38.222Z,23.11
